map of LBE home
LBE - Airport
Location
City:  Latrobe, Pennsylvania, United States
Name:Arnold Palmer Regional
ICAO:KLBE
IATA:LBE
FAA LID:LBE

Details
Type:Airport (Part 139 Class I)
Use:Public/Civil
Latitude:4016'23"N (40.273100)
Longitude:7924'37"W (-79.410325)
Datum:WGS 1984
Elevation:1198 ft (365 m)
Variation:9.66W (WMM2015 magnetic declination)
-0.02 annual change
Runways:1
Longest:8222 × 100 ft (2506 × 30.5 m), paved

Time
Time Zone:UTC-5 (DST-4)
Local Time:

Weather
METAR:KLBE 191950Z 03006KT 15SM SKC 26/14 A3003
TAF:KLBE 191737Z 1918/2018 VRB02KT P6SM SCT100
FM200800 34004KT 1/2SM FG SKC
TEMPO 2010/2013 1/4SM FG SCT015
FM201400 20005KT P6SM SCT250

Related Locations
Nearby:
Farthest:YAUG: 11541 mi / 18573 km
Augusta [Augusta Airport], WA, AU

Find:

   beyond  
but within

Other Information
Maps:
NOTAMs:
Links:
Sources:

  
  • flag of United States
  • flag of Pennsylvania
  

Airport Diagram

Airport diagram for LBE

Airport diagram PDF

Sectional Chart

Flight Planning
at skyvector.com

Satellite Image

Google Maps Satellite view

 

Copyright © 2004-2018 Karl L. Swartz. All rights reserved.
The Great Circle Mapper name and logo are trademarks of the Great Circle Mapper.
All other trademarks mentioned herein belong to their respective owners.
Please see credits for attibutions and further copyright information.

  Follow gcmap on Facebook Follow gcmap on Twitter Follow gcmap on Google+ GCmap on LinkedIn

hCard Microformat

Geo Microformat